Time;durP1;ratioP1;P1;durP2;ratioP2;P2;SDS_P1;SDS_P2;PMS_P1;PMS_P2;Temp;Humidity;BMP_temperature;BMP_pressure;BME280_temperature;BME280_humidity;BME280_pressure;Samples;Min_cycle;Max_cycle;Signal;HPM_P1;HPM_P2
2021/12/29 00:00:16;;;;;;;13.30;2.55;;;;;;;6.27;91.16;98275.78;5012669;28;20108;-67
2021/12/29 00:02:41;;;;;;;13.30;2.95;;;;;;;6.31;91.19;98285.00;5007020;28;20081;-71
2021/12/29 00:05:08;;;;;;;14.57;2.60;;;;;;;6.34;91.18;98289.94;5016417;28;20625;-72
2021/12/29 00:07:33;;;;;;;16.45;3.90;;;;;;;6.36;91.34;98293.22;5036142;28;20033;-71
2021/12/29 00:10:01;;;;;;;23.70;3.72;;;;;;;6.36;91.29;98289.81;5035609;28;20051;-70
2021/12/29 00:12:26;;;;;;;16.40;3.03;;;;;;;6.38;91.04;98295.69;5013281;28;20057;-68
2021/12/29 00:14:53;;;;;;;14.52;2.70;;;;;;;6.37;90.93;98284.47;5027865;28;20498;-71
2021/12/29 00:17:19;;;;;;;24.65;4.55;;;;;;;6.39;90.90;98289.56;5034092;28;20021;-71
2021/12/29 00:19:45;;;;;;;19.67;3.10;;;;;;;6.40;91.40;98286.81;5013743;28;20075;-72
2021/12/29 00:22:10;;;;;;;18.10;3.67;;;;;;;6.42;91.07;98292.75;5033246;28;20048;-71
2021/12/29 00:24:36;;;;;;;19.27;3.60;;;;;;;6.43;91.21;98294.38;5016995;28;20052;-70
2021/12/29 00:27:04;;;;;;;23.90;4.18;;;;;;;6.42;91.18;98299.72;5034995;28;20025;-71
2021/12/29 00:29:29;;;;;;;24.80;5.20;;;;;;;6.40;91.61;98299.84;5040651;28;20055;-69
2021/12/29 00:31:55;;;;;;;18.40;3.85;;;;;;;6.42;91.60;98304.94;5033890;28;20645;-71
2021/12/29 00:34:20;;;;;;;21.13;3.60;;;;;;;6.43;91.52;98309.19;5033807;28;20029;-71
2021/12/29 00:36:45;;;;;;;16.88;4.13;;;;;;;6.39;91.53;98308.59;5017663;28;20029;-72
2021/12/29 00:39:11;;;;;;;10.25;2.83;;;;;;;6.40;91.77;98314.63;5042823;28;20024;-71
2021/12/29 00:41:36;;;;;;;18.85;3.10;;;;;;;6.39;91.62;98326.00;5023183;28;20032;-72
2021/12/29 00:44:02;;;;;;;25.23;3.53;;;;;;;6.39;91.85;98324.22;5015290;28;20068;-70
2021/12/29 00:46:27;;;;;;;14.73;3.20;;;;;;;6.40;91.31;98325.88;5033159;28;20588;-71
2021/12/29 00:48:52;;;;;;;12.95;2.80;;;;;;;6.38;91.76;98319.97;5036877;28;20116;-71
2021/12/29 00:51:18;;;;;;;19.10;3.58;;;;;;;6.37;92.14;98330.50;5039234;28;20014;-70
2021/12/29 00:53:43;;;;;;;13.10;2.55;;;;;;;6.37;91.92;98333.91;5045827;28;20029;-70
2021/12/29 00:56:09;;;;;;;19.15;3.10;;;;;;;6.37;91.87;98340.91;5007864;28;20292;-68
2021/12/29 00:58:35;;;;;;;10.38;2.42;;;;;;;6.38;91.68;98345.16;5036396;28;20155;-71
2021/12/29 01:01:03;;;;;;;17.60;2.90;;;;;;;6.33;92.18;98355.94;5033547;28;20438;-71
2021/12/29 01:03:28;;;;;;;18.70;3.35;;;;;;;6.31;92.30;98363.06;5026698;28;20021;-70
2021/12/29 01:05:55;;;;;;;10.70;2.67;;;;;;;6.34;92.22;98365.44;5029499;28;20040;-70
2021/12/29 01:08:21;;;;;;;15.32;2.83;;;;;;;6.31;92.12;98373.47;5041438;28;20036;-70
2021/12/29 01:10:47;;;;;;;22.13;3.17;;;;;;;6.27;92.53;98380.69;5044677;28;20410;-70
2021/12/29 01:13:18;;;;;;;14.88;4.40;;;;;;;6.26;92.74;98384.22;5042427;28;20036;-72
2021/12/29 01:18:29;;;;;;;20.33;3.63;;;;;;;6.20;92.68;98392.53;5044309;28;20428;-72
2021/12/29 01:20:55;;;;;;;15.48;3.15;;;;;;;6.14;92.56;98389.59;5041062;28;20029;-70
2021/12/29 01:23:21;;;;;;;22.30;3.30;;;;;;;6.11;92.51;98400.25;5035540;28;20025;-70
2021/12/29 01:25:46;;;;;;;17.10;3.22;;;;;;;6.07;93.23;98397.06;5024482;28;20499;-69
2021/12/29 01:28:12;;;;;;;17.90;3.70;;;;;;;5.96;93.23;98397.91;5037389;28;20036;-70
2021/12/29 01:30:37;;;;;;;16.63;3.30;;;;;;;5.85;94.10;98402.25;5029800;28;20009;-68
2021/12/29 01:33:06;;;;;;;13.98;3.08;;;;;;;5.76;94.06;98403.81;5041216;28;20494;-70
2021/12/29 01:35:37;;;;;;;28.00;3.45;;;;;;;5.74;94.19;98405.69;5031195;28;20037;-68
2021/12/29 01:38:05;;;;;;;14.88;4.57;;;;;;;5.75;94.28;98418.59;5021535;28;20029;-68
2021/12/29 01:40:31;;;;;;;21.05;3.28;;;;;;;5.80;94.38;98418.22;5044456;28;20034;-70
2021/12/29 01:42:57;;;;;;;18.75;3.35;;;;;;;5.80;94.44;98421.66;5039674;28;20087;-69
2021/12/29 01:45:23;;;;;;;20.77;3.53;;;;;;;5.82;94.22;98424.97;5070447;22;20049;-87
2021/12/29 01:47:49;;;;;;;14.13;3.08;;;;;;;5.83;94.20;98413.63;5063604;28;20032;-87
2021/12/29 01:50:17;;;;;;;23.33;3.50;;;;;;;5.89;93.57;98419.28;5055883;28;20028;-87
2021/12/29 01:52:53;;;;;;;16.02;3.20;;;;;;;5.89;93.52;98419.28;5060959;28;20148;-86
2021/12/29 01:55:19;;;;;;;16.98;3.88;;;;;;;5.88;93.49;98420.22;5062317;28;20044;-87
2021/12/29 01:57:48;;;;;;;19.45;3.75;;;;;;;5.87;93.40;98422.00;5070159;28;20067;-88
2021/12/29 02:00:17;;;;;;;35.22;4.05;;;;;;;5.88;93.30;98426.25;5066337;28;20601;-87
2021/12/29 02:02:43;;;;;;;24.55;3.53;;;;;;;5.89;93.33;98434.88;5069115;28;20346;-87
2021/12/29 02:05:09;;;;;;;14.60;2.83;;;;;;;5.90;93.12;98426.16;5058729;28;20036;-86
2021/12/29 02:07:35;;;;;;;16.23;2.80;;;;;;;5.90;93.09;98434.78;5057820;28;20204;-86
2021/12/29 02:10:01;;;;;;;9.73;2.53;;;;;;;5.92;92.63;98429.44;5060796;28;20140;-87
2021/12/29 02:12:26;;;;;;;16.95;2.90;;;;;;;5.92;92.48;98440.69;5064894;28;20424;-86
2021/12/29 02:14:52;;;;;;;18.92;3.40;;;;;;;5.92;92.56;98442.44;5069348;28;20039;-87
2021/12/29 02:17:18;;;;;;;12.32;2.53;;;;;;;5.96;92.13;98447.31;5071078;28;20048;-86
2021/12/29 02:19:47;;;;;;;14.20;2.42;;;;;;;6.05;91.79;98445.78;5062958;28;20037;-87
2021/12/29 02:22:29;;;;;;;17.85;2.47;;;;;;;6.11;91.47;98452.28;5067465;28;20078;-88
2021/12/29 02:25:07;;;;;;;14.60;2.42;;;;;;;6.21;90.76;98463.63;5067114;28;20470;-87
2021/12/29 02:27:36;;;;;;;9.73;2.63;;;;;;;6.28;90.44;98468.22;5070415;28;20508;-87
2021/12/29 02:30:04;;;;;;;17.35;2.40;;;;;;;6.35;90.22;98471.19;5062205;28;20090;-87
2021/12/29 02:32:30;;;;;;;9.93;1.80;;;;;;;6.39;89.72;98466.56;5070446;28;20028;-87
2021/12/29 02:34:55;;;;;;;10.35;2.10;;;;;;;6.41;89.79;98472.47;5069459;28;20043;-86
2021/12/29 02:37:22;;;;;;;12.32;2.10;;;;;;;6.48;89.49;98477.06;5071952;28;20047;-87
2021/12/29 02:39:49;;;;;;;14.15;2.10;;;;;;;6.49;88.75;98481.34;5071556;28;20028;-86
2021/12/29 02:42:20;;;;;;;8.35;1.92;;;;;;;6.52;89.08;98488.88;5070508;28;20107;-87
2021/12/29 02:44:46;;;;;;;11.38;1.80;;;;;;;6.52;88.77;98496.69;5069676;28;20041;-86
2021/12/29 02:47:12;;;;;;;19.38;2.58;;;;;;;6.54;89.03;98491.38;5069430;28;20166;-86
2021/12/29 02:49:37;;;;;;;10.18;1.83;;;;;;;6.56;88.93;98499.88;5070993;28;20055;-86
2021/12/29 02:52:04;;;;;;;6.90;1.90;;;;;;;6.54;88.82;98496.59;5068135;28;20040;-86
2021/12/29 02:54:29;;;;;;;7.68;2.00;;;;;;;6.55;88.99;98504.25;5067978;28;20031;-87
2021/12/29 02:56:57;;;;;;;9.48;1.60;;;;;;;6.54;88.72;98505.22;5069477;28;20207;-86
2021/12/29 02:59:24;;;;;;;5.78;1.60;;;;;;;6.54;88.66;98517.41;5071184;28;20036;-87
2021/12/29 03:01:50;;;;;;;8.95;2.40;;;;;;;6.55;88.91;98514.69;5055804;28;20509;-87
2021/12/29 03:04:18;;;;;;;7.70;1.80;;;;;;;6.53;89.08;98519.19;5070423;28;20033;-86
2021/12/29 03:06:49;;;;;;;8.77;1.80;;;;;;;6.51;88.95;98526.28;5071813;28;20022;-87
2021/12/29 03:09:18;;;;;;;8.05;1.70;;;;;;;6.51;89.24;98533.28;5062068;28;20371;-87
2021/12/29 03:11:47;;;;;;;7.20;1.98;;;;;;;6.51;88.76;98525.47;5070514;28;20043;-87
2021/12/29 03:14:14;;;;;;;;;;;;;;;6.50;88.88;98536.84;5068830;28;20531;-87
2021/12/29 03:16:51;;;;;;;16.33;1.67;;;;;;;6.47;89.28;98534.47;5071062;28;19912;-87
2021/12/29 03:19:18;;;;;;;11.73;2.53;;;;;;;6.46;88.88;98541.44;5070691;28;20051;-86
2021/12/29 03:21:46;;;;;;;11.85;2.22;;;;;;;6.46;88.80;98540.63;5069150;28;20029;-87
2021/12/29 03:24:21;;;;;;;17.10;2.95;;;;;;;6.44;88.96;98540.72;5072047;28;20134;-88
2021/12/29 03:26:46;;;;;;;7.63;2.20;;;;;;;6.42;89.13;98552.22;5070736;28;20032;-86
2021/12/29 03:29:12;;;;;;;11.48;2.33;;;;;;;6.42;89.31;98562.63;5070800;28;20093;-86
2021/12/29 03:31:39;;;;;;;16.38;4.38;;;;;;;6.40;89.26;98557.53;5060714;28;20036;-86
2021/12/29 03:34:06;;;;;;;11.40;2.10;;;;;;;6.36;89.23;98558.72;5071353;28;20081;-87
2021/12/29 03:36:34;;;;;;;13.68;2.03;;;;;;;6.34;89.39;98565.00;5069119;28;20039;-86
2021/12/29 03:39:02;;;;;;;10.38;2.05;;;;;;;6.35;89.36;98572.69;5066953;28;20037;-86
2021/12/29 03:41:27;;;;;;;12.25;2.15;;;;;;;6.36;89.93;98576.13;5069893;28;20033;-86
2021/12/29 03:43:55;;;;;;;17.35;3.45;;;;;;;6.30;90.04;98574.81;5073049;28;20044;-86
2021/12/29 03:46:20;;;;;;;9.65;2.33;;;;;;;6.31;89.65;98576.47;5074893;28;20052;-85
2021/12/29 03:48:47;;;;;;;21.75;2.78;;;;;;;6.33;89.93;98584.97;5069412;28;20077;-86
2021/12/29 03:51:13;;;;;;;15.85;2.58;;;;;;;6.32;89.83;98585.94;5068569;28;20081;-85
2021/12/29 03:53:39;;;;;;;13.52;2.33;;;;;;;6.31;90.05;98592.09;5075241;28;20488;-87
2021/12/29 03:56:05;;;;;;;6.20;2.35;;;;;;;6.30;90.02;98586.06;5069342;28;20032;-87
2021/12/29 03:58:31;;;;;;;12.40;2.83;;;;;;;6.31;90.02;98594.69;5071248;28;20086;-87
2021/12/29 04:01:08;;;;;;;12.65;2.03;;;;;;;6.32;89.96;98593.75;5069571;28;20033;-85
2021/12/29 04:03:34;;;;;;;13.70;2.08;;;;;;;6.35;89.87;98600.50;5070240;28;20027;-86
2021/12/29 04:06:02;;;;;;;11.93;2.15;;;;;;;6.37;89.88;98596.81;5067752;28;20044;-86
2021/12/29 04:08:28;;;;;;;11.65;2.50;;;;;;;6.38;89.56;98608.06;5059805;28;20047;-85
2021/12/29 04:10:53;;;;;;;15.23;2.35;;;;;;;6.39;89.66;98620.97;5068526;28;20364;-86
2021/12/29 04:13:19;;;;;;;7.35;2.05;;;;;;;6.40;89.64;98616.59;5067923;28;20460;-86
2021/12/29 04:15:50;;;;;;;6.90;1.88;;;;;;;6.42;89.42;98630.31;5070096;28;20027;-87
2021/12/29 04:18:30;;;;;;;7.47;2.05;;;;;;;6.37;89.86;98629.84;5071195;28;20020;-86
2021/12/29 04:21:03;;;;;;;11.20;2.55;;;;;;;6.37;89.83;98625.44;5060302;28;20564;-87
2021/12/29 04:23:37;;;;;;;13.98;2.67;;;;;;;6.37;89.91;98630.66;5061499;28;20033;-87
2021/12/29 04:26:07;;;;;;;9.95;2.05;;;;;;;6.37;89.31;98628.06;5062421;28;20076;-87
2021/12/29 04:28:33;;;;;;;14.30;2.83;;;;;;;6.37;89.71;98630.66;5058915;28;20029;-85
2021/12/29 04:31:06;;;;;;;15.43;3.13;;;;;;;6.34;89.86;98630.91;5071575;28;20258;-86
2021/12/29 04:33:32;;;;;;;11.25;2.30;;;;;;;6.37;89.72;98642.84;5069243;28;20017;-87
2021/12/29 04:35:58;;;;;;;13.05;2.60;;;;;;;6.35;89.78;98637.78;5066556;28;20360;-87
2021/12/29 04:38:25;;;;;;;8.35;2.53;;;;;;;6.33;90.03;98634.44;5067354;28;20037;-86
2021/12/29 04:40:54;;;;;;;12.77;2.70;;;;;;;6.35;90.00;98645.56;5068304;28;20052;-87
2021/12/29 04:43:21;;;;;;;20.43;3.47;;;;;;;6.34;89.48;98641.31;5068048;28;20033;-86
2021/12/29 04:45:47;;;;;;;9.68;2.17;;;;;;;6.34;89.65;98648.28;5068661;28;20067;-86
2021/12/29 04:48:17;;;;;;;19.77;3.15;;;;;;;6.33;89.74;98652.66;5069268;28;20012;-86
2021/12/29 04:50:51;;;;;;;;;;;;;;;6.35;89.03;98658.59;5068126;28;20135;-87
2021/12/29 04:53:21;;;;;;;9.27;2.80;;;;;;;6.36;89.14;98662.84;5051806;28;20003;-86
2021/12/29 04:55:49;;;;;;;9.15;2.60;;;;;;;6.36;89.41;98667.22;5067725;28;20056;-86
2021/12/29 04:58:18;;;;;;;15.77;2.88;;;;;;;6.34;89.31;98664.75;5067212;28;20046;-86
2021/12/29 05:00:45;;;;;;;15.57;2.90;;;;;;;6.36;89.21;98677.63;5068707;28;20048;-86
2021/12/29 05:03:11;;;;;;;14.18;2.92;;;;;;;6.35;89.65;98668.19;5067500;28;20013;-86
2021/12/29 05:10:47;;;;;;;9.63;3.10;;;;;;;6.23;89.68;98675.13;5067522;28;20056;-87
2021/12/29 05:13:14;;;;;;;11.15;2.63;;;;;;;6.13;89.95;98668.97;5067583;28;20508;-87
2021/12/29 05:15:42;;;;;;;19.33;4.20;;;;;;;5.96;90.75;98672.81;5068250;28;20029;-87
2021/12/29 05:18:08;;;;;;;15.82;2.85;;;;;;;5.83;91.65;98686.69;5072714;28;20040;-87
2021/12/29 05:20:34;;;;;;;14.65;3.10;;;;;;;5.71;92.27;98697.13;5068697;28;20043;-86
2021/12/29 05:23:00;;;;;;;8.85;2.63;;;;;;;5.68;92.20;98705.19;5068532;28;20032;-87
2021/12/29 05:25:29;;;;;;;10.27;3.13;;;;;;;5.63;92.40;98708.09;5071861;28;20029;-86
2021/12/29 05:27:55;;;;;;;;;;;;;;;5.64;92.61;98706.34;5074515;28;20066;-85
2021/12/29 05:30:21;;;;;;;10.00;3.35;;;;;;;5.64;92.26;98711.56;5074305;28;19931;-86
2021/12/29 05:32:46;;;;;;;12.50;2.80;;;;;;;5.71;91.66;98712.75;5073225;28;20368;-86
2021/12/29 05:35:13;;;;;;;6.20;2.33;;;;;;;5.78;91.40;98711.34;5071356;28;20028;-85
2021/12/29 05:37:39;;;;;;;13.90;2.83;;;;;;;5.86;90.65;98716.00;5073350;28;20051;-86
2021/12/29 05:40:07;;;;;;;12.63;2.40;;;;;;;5.89;90.68;98713.19;5064369;28;20469;-86
2021/12/29 05:42:34;;;;;;;14.43;2.90;;;;;;;5.92;90.23;98711.22;5069270;28;20028;-86
2021/12/29 05:45:04;;;;;;;10.55;2.38;;;;;;;5.96;90.21;98701.41;5070083;28;20123;-85
2021/12/29 05:47:30;;;;;;;10.38;2.63;;;;;;;5.99;90.15;98719.41;5073133;28;20040;-85
2021/12/29 05:49:58;;;;;;;11.30;2.83;;;;;;;5.99;90.15;98722.84;5074895;28;20044;-85
2021/12/29 05:52:24;;;;;;;11.32;2.67;;;;;;;6.01;89.96;98726.16;5065097;28;20037;-85
2021/12/29 05:54:52;;;;;;;11.93;2.90;;;;;;;6.03;89.54;98724.25;5072881;28;20124;-86
2021/12/29 05:57:18;;;;;;;8.10;2.50;;;;;;;6.07;89.63;98736.09;5065761;28;20029;-87
2021/12/29 05:59:43;;;;;;;7.88;2.78;;;;;;;6.09;89.68;98743.81;5071251;28;20040;-86
2021/12/29 06:02:09;;;;;;;9.30;2.80;;;;;;;6.08;89.52;98739.53;5071321;28;20035;-85
2021/12/29 06:04:34;;;;;;;9.20;2.78;;;;;;;6.06;89.66;98741.44;5071132;28;20465;-86
2021/12/29 06:07:00;;;;;;;9.38;3.22;;;;;;;6.06;89.50;98752.66;5062420;28;20119;-86
2021/12/29 06:09:25;;;;;;;10.75;2.47;;;;;;;6.05;89.71;98753.63;5069052;28;20028;-87
2021/12/29 06:11:51;;;;;;;10.18;2.88;;;;;;;6.03;89.59;98758.09;5072759;28;20044;-86
2021/12/29 06:14:16;;;;;;;10.18;3.08;;;;;;;6.04;89.82;98764.97;5069658;28;20082;-86
2021/12/29 06:16:44;;;;;;;14.48;2.53;;;;;;;6.03;89.76;98773.69;5071991;28;20567;-87
2021/12/29 06:19:10;;;;;;;13.55;2.85;;;;;;;6.01;90.05;98774.78;5059054;28;20408;-85
2021/12/29 06:21:35;;;;;;;9.77;3.25;;;;;;;6.02;89.83;98766.84;5068355;28;20074;-85
2021/12/29 06:24:06;;;;;;;11.63;2.53;;;;;;;5.99;89.77;98785.28;5076766;28;20021;-87
2021/12/29 06:26:36;;;;;;;15.32;3.00;;;;;;;6.01;89.91;98788.59;5082746;28;20074;-86
2021/12/29 06:29:15;;;;;;;12.50;2.78;;;;;;;6.02;90.01;98789.44;5088077;28;20112;-89
2021/12/29 06:31:47;;;;;;;6.85;2.03;;;;;;;6.01;89.72;98793.81;5085569;28;20523;-89
2021/12/29 06:38:36;;;;;;;;;;;;;;;;;;;;;
2021/12/29 06:41:18;;;;;;;7.72;2.97;;;;;;;6.04;90.26;98810.94;4991621;28;20046;-87
2021/12/29 06:43:46;;;;;;;9.77;3.08;;;;;;;6.04;90.04;98814.41;4945013;28;20072;-88
2021/12/29 06:46:14;;;;;;;10.68;3.30;;;;;;;6.02;89.99;98808.47;4985139;28;20056;-87
2021/12/29 06:48:40;;;;;;;9.88;2.70;;;;;;;6.02;90.00;98808.47;5003415;28;20057;-87
2021/12/29 06:51:06;;;;;;;13.65;3.20;;;;;;;5.98;90.09;98809.63;5024231;28;20067;-86
2021/12/29 06:53:32;;;;;;;11.00;3.35;;;;;;;5.97;90.25;98822.72;5007876;28;21219;-86
2021/12/29 06:55:58;;;;;;;11.13;3.50;;;;;;;5.97;89.99;98828.78;5014528;28;20144;-86
2021/12/29 06:58:23;;;;;;;7.28;3.03;;;;;;;5.95;89.98;98832.44;5004413;28;21668;-86
2021/12/29 07:00:52;;;;;;;7.70;2.45;;;;;;;5.94;90.44;98833.38;5017627;28;20112;-86
2021/12/29 07:03:18;;;;;;;7.78;2.72;;;;;;;5.95;89.86;98835.88;5013066;28;20117;-85
2021/12/29 07:05:43;;;;;;;7.25;2.63;;;;;;;5.94;90.16;98835.97;5027519;28;20120;-86
2021/12/29 07:08:11;;;;;;;9.10;3.20;;;;;;;5.97;89.79;98843.56;5022421;28;20044;-86
2021/12/29 07:10:40;;;;;;;11.48;2.90;;;;;;;5.98;90.58;98833.06;5008714;28;20025;-85
2021/12/29 07:13:06;;;;;;;13.98;3.28;;;;;;;5.98;90.06;98848.66;5023353;28;20136;-87
2021/12/29 07:15:34;;;;;;;10.52;3.33;;;;;;;5.97;90.48;98852.22;5072115;28;20022;-87
2021/12/29 07:18:00;;;;;;;7.72;3.30;;;;;;;5.98;90.60;98856.47;5071396;28;20044;-87
2021/12/29 07:20:25;;;;;;;8.52;3.42;;;;;;;5.97;90.53;98851.34;5069692;28;20469;-86
2021/12/29 07:22:51;;;;;;;11.32;3.33;;;;;;;5.97;90.79;98854.81;5069514;28;20119;-87
2021/12/29 07:25:16;;;;;;;10.50;3.78;;;;;;;6.01;92.21;98851.03;5069235;28;20033;-86
2021/12/29 07:27:42;;;;;;;14.90;4.30;;;;;;;6.03;92.41;98859.56;5066605;28;20032;-87
2021/12/29 07:30:11;;;;;;;10.75;4.13;;;;;;;6.04;92.79;98863.84;5069772;28;20050;-86
2021/12/29 07:32:37;;;;;;;11.52;4.50;;;;;;;6.08;93.39;98872.22;5068001;28;20029;-86
2021/12/29 07:35:03;;;;;;;10.18;4.65;;;;;;;6.11;93.67;98871.19;5059357;28;20119;-86
2021/12/29 07:37:28;;;;;;;12.48;4.38;;;;;;;6.10;94.14;98872.97;5083670;28;20029;-87
2021/12/29 07:40:01;;;;;;;13.38;4.68;;;;;;;6.12;94.74;98867.63;5070033;28;20356;-86
2021/12/29 07:42:27;;;;;;;14.52;4.95;;;;;;;6.12;94.73;98865.91;5073426;28;20090;-86
2021/12/29 07:44:53;;;;;;;12.15;5.32;;;;;;;6.16;95.38;98875.16;5074462;28;20452;-86
2021/12/29 07:47:18;;;;;;;9.80;4.65;;;;;;;6.19;95.62;98880.13;5072907;28;20070;-86
2021/12/29 07:49:44;;;;;;;15.55;5.47;;;;;;;6.20;95.81;98875.75;5072801;28;20033;-85
2021/12/29 07:52:09;;;;;;;14.77;5.28;;;;;;;6.21;95.97;98886.03;5068769;28;20110;-86
2021/12/29 07:54:37;;;;;;;14.10;5.57;;;;;;;6.22;95.99;98890.28;5067279;28;20020;-86
2021/12/29 07:57:07;;;;;;;17.65;5.85;;;;;;;6.24;95.26;98898.84;5069952;28;20020;-85
2021/12/29 07:59:34;;;;;;;15.55;5.80;;;;;;;6.23;96.03;98896.31;5077241;28;20044;-87
2021/12/29 08:02:03;;;;;;;17.52;5.85;;;;;;;6.36;96.74;98904.09;5069915;28;20504;-86
2021/12/29 08:04:38;;;;;;;16.73;5.50;;;;;;;6.33;95.56;98902.53;5067461;28;20400;-86
2021/12/29 08:07:04;;;;;;;18.55;5.75;;;;;;;6.38;95.79;98915.22;5072658;28;20033;-85
2021/12/29 08:09:29;;;;;;;13.25;5.80;;;;;;;6.39;95.76;98928.16;5069081;28;20071;-87
2021/12/29 08:11:55;;;;;;;16.17;6.28;;;;;;;6.48;96.73;98930.06;5068036;28;20048;-86
2021/12/29 08:14:20;;;;;;;15.48;6.72;;;;;;;6.46;95.89;98931.97;5067840;28;20024;-87
2021/12/29 08:16:48;;;;;;;12.23;6.40;;;;;;;6.48;95.51;98939.66;5069824;28;20077;-86
2021/12/29 08:19:21;;;;;;;15.45;6.53;;;;;;;6.48;96.00;98947.47;5065145;28;20032;-87
2021/12/29 08:21:49;;;;;;;14.48;7.03;;;;;;;6.48;96.16;98953.50;5069498;28;20029;-86
2021/12/29 08:24:19;;;;;;;15.13;7.15;;;;;;;6.50;96.26;98954.25;5064550;28;20016;-88
2021/12/29 08:26:47;;;;;;;13.60;6.80;;;;;;;6.50;96.37;98951.66;5069862;28;20037;-87
2021/12/29 08:29:13;;;;;;;16.15;6.68;;;;;;;6.52;96.52;98957.56;5061681;28;20036;-87
2021/12/29 08:31:41;;;;;;;14.07;6.72;;;;;;;6.55;96.45;98954.75;5062730;28;20025;-88
2021/12/29 08:34:08;;;;;;;14.77;6.35;;;;;;;6.59;95.84;98964.94;5074173;28;20090;-87
2021/12/29 08:36:34;;;;;;;14.70;6.25;;;;;;;6.58;96.68;98965.88;5072070;28;20044;-87
2021/12/29 08:39:05;;;;;;;14.98;6.35;;;;;;;6.60;96.20;98969.19;5074485;28;20403;-88
2021/12/29 08:41:31;;;;;;;14.50;8.23;;;;;;;6.62;96.86;98975.97;5069380;28;20403;-87
2021/12/29 08:43:57;;;;;;;19.90;7.43;;;;;;;6.63;96.49;98979.41;5060388;28;20040;-87
2021/12/29 08:46:23;;;;;;;17.33;8.07;;;;;;;6.64;96.77;98974.09;5071756;28;20081;-87
2021/12/29 08:48:49;;;;;;;17.23;7.75;;;;;;;6.65;97.15;98982.75;5068780;28;20082;-88
2021/12/29 08:51:19;;;;;;;19.10;7.68;;;;;;;6.69;97.06;98987.59;5070449;28;20020;-88
2021/12/29 08:53:52;;;;;;;19.42;9.18;;;;;;;6.67;97.43;98994.69;5067564;28;20059;-88
2021/12/29 08:56:21;;;;;;;21.55;10.52;;;;;;;6.67;97.89;98994.69;5071769;28;20029;-88
2021/12/29 08:58:58;;;;;;;23.65;9.88;;;;;;;6.67;98.23;99001.69;5069921;28;20162;-87
2021/12/29 09:01:27;;;;;;;19.67;10.45;;;;;;;6.71;99.01;99003.13;5071956;28;20501;-88
2021/12/29 09:03:54;;;;;;;18.38;10.48;;;;;;;6.77;98.61;99005.28;5074586;28;20036;-87
2021/12/29 09:06:22;;;;;;;20.40;10.57;;;;;;;6.77;98.52;99006.13;5066945;28;20154;-88
2021/12/29 09:08:54;;;;;;;20.77;9.03;;;;;;;6.76;98.53;99012.28;5070324;28;20071;-87
2021/12/29 09:11:19;;;;;;;21.38;10.10;;;;;;;6.83;99.01;99010.06;5074428;28;20036;-87
2021/12/29 09:13:45;;;;;;;20.80;9.95;;;;;;;6.82;99.13;99021.41;5067099;28;20047;-88
2021/12/29 09:16:12;;;;;;;19.85;11.40;;;;;;;6.88;99.31;99020.97;5074805;28;20072;-88
2021/12/29 09:18:40;;;;;;;19.92;10.30;;;;;;;6.91;98.90;99023.38;5071183;28;20029;-86
2021/12/29 09:21:18;;;;;;;20.58;8.82;;;;;;;6.93;99.13;99038.88;5072084;28;20115;-87
2021/12/29 09:23:44;;;;;;;17.52;9.02;;;;;;;6.94;98.88;99033.56;5049714;28;20461;-90
2021/12/29 09:26:15;;;;;;;17.33;8.93;;;;;;;6.97;98.70;99037.72;5074132;28;20161;-88
2021/12/29 09:28:57;;;;;;;16.92;8.98;;;;;;;6.98;98.47;99035.00;5072404;28;20044;-88
2021/12/29 09:31:27;;;;;;;15.68;7.85;;;;;;;6.99;98.65;99041.06;5063970;28;20032;-87
2021/12/29 09:33:53;;;;;;;21.90;8.77;;;;;;;6.99;98.68;99039.28;5063896;28;20084;-88
2021/12/29 09:36:18;;;;;;;20.23;8.57;;;;;;;7.01;98.64;99036.56;5054315;28;20044;-88
2021/12/29 09:38:45;;;;;;;18.60;9.00;;;;;;;7.04;98.94;99041.53;5045850;28;20111;-88
2021/12/29 09:41:14;;;;;;;16.75;9.20;;;;;;;7.05;98.53;99042.41;5072758;28;20048;-87
2021/12/29 09:43:40;;;;;;;17.50;9.18;;;;;;;7.05;98.31;99039.78;5072560;28;20032;-87
2021/12/29 09:46:17;;;;;;;18.48;10.00;;;;;;;7.06;98.25;99046.66;5061522;28;20047;-87
2021/12/29 09:49:00;;;;;;;19.27;10.82;;;;;;;7.09;97.93;99052.47;5059660;28;20025;-88
2021/12/29 09:51:28;;;;;;;19.55;11.50;;;;;;;7.06;97.48;99052.69;5063125;28;20481;-89
2021/12/29 09:54:12;;;;;;;20.40;10.75;;;;;;;7.07;97.62;99051.75;5061707;28;20473;-88
2021/12/29 09:57:32;;;;;;;19.30;9.55;;;;;;;7.06;97.48;99046.66;5053495;28;20538;-87
2021/12/29 10:00:25;;;;;;;19.40;9.95;;;;;;;7.05;97.57;99045.00;5059466;28;20045;-88
2021/12/29 10:02:52;;;;;;;18.48;10.02;;;;;;;7.05;97.71;99058.88;5046703;28;20033;-87
2021/12/29 10:05:18;;;;;;;17.85;9.57;;;;;;;7.05;97.66;99045.84;5076959;28;20123;-88
2021/12/29 10:07:46;;;;;;;20.45;11.02;;;;;;;7.04;98.22;99046.75;5080493;28;20100;-88
2021/12/29 10:10:34;;;;;;;20.98;11.70;;;;;;;7.05;97.83;99047.63;5074686;28;20112;-88
2021/12/29 10:13:03;;;;;;;17.65;10.35;;;;;;;7.05;98.37;99050.22;5072877;28;20135;-88
2021/12/29 10:15:34;;;;;;;;;;;;;;;7.04;98.33;99049.34;5071621;28;20042;-89
2021/12/29 10:18:25;;;;;;;20.27;9.85;;;;;;;7.05;98.79;99058.88;5060687;28;19917;-87
2021/12/29 10:21:01;;;;;;;16.48;9.05;;;;;;;7.08;98.46;99052.56;5071364;28;20150;-88
2021/12/29 10:23:32;;;;;;;18.50;9.13;;;;;;;7.09;98.64;99062.91;5073377;28;20087;-87
2021/12/29 10:26:10;;;;;;;19.70;8.88;;;;;;;7.08;98.39;99061.22;5073170;28;20032;-88
2021/12/29 10:28:47;;;;;;;16.02;8.45;;;;;;;7.10;98.65;99061.97;5072198;28;20089;-88
2021/12/29 10:31:22;;;;;;;20.23;8.70;;;;;;;7.09;98.25;99064.69;5063731;28;20040;-91
2021/12/29 10:34:14;;;;;;;18.08;8.48;;;;;;;7.13;98.85;99071.34;5060354;28;20353;-89
2021/12/29 10:36:46;;;;;;;15.90;8.38;;;;;;;7.16;98.43;99073.72;5062609;28;20076;-89
2021/12/29 10:39:30;;;;;;;23.27;8.90;;;;;;;7.19;98.34;99076.94;5067458;28;20052;-86
2021/12/29 10:42:16;;;;;;;16.90;9.05;;;;;;;7.21;98.87;99074.22;5058024;28;20495;-86
2021/12/29 10:45:06;;;;;;;16.80;7.80;;;;;;;7.23;98.72;99080.13;5071978;28;20041;-89
2021/12/29 10:47:37;;;;;;;17.80;9.68;;;;;;;7.23;99.02;99080.13;5064453;28;20052;-92
2021/12/29 10:50:21;;;;;;;18.95;9.35;;;;;;;7.27;99.27;99079.00;5073028;28;20048;-90
2021/12/29 10:52:58;;;;;;;19.63;9.73;;;;;;;7.25;99.48;99084.31;5064905;28;20058;-88
2021/12/29 10:55:34;;;;;;;22.27;10.13;;;;;;;7.26;99.80;99093.78;5071241;28;20142;-86
2021/12/29 10:58:10;;;;;;;23.77;10.82;;;;;;;7.30;100.00;99090.97;5069812;28;20127;-88
2021/12/29 11:00:39;;;;;;;24.45;11.95;;;;;;;7.31;100.00;99087.44;5070589;28;20025;-87
2021/12/29 11:03:21;;;;;;;25.33;11.02;;;;;;;7.32;100.00;99089.09;5073209;28;20020;-87
2021/12/29 11:06:13;;;;;;;26.80;13.25;;;;;;;7.36;100.00;99101.78;5061300;28;20051;-88
2021/12/29 11:09:15;;;;;;;27.73;12.48;;;;;;;7.39;100.00;99103.34;5047243;28;20037;-89
2021/12/29 11:11:46;;;;;;;31.48;14.30;;;;;;;7.44;100.00;99103.81;5038453;28;20028;-88
2021/12/29 11:14:44;;;;;;;;;;;;;;;;;;;;;
2021/12/29 11:17:22;;;;;;;23.27;12.07;;;;;;;7.50;100.00;99106.00;5059880;28;20432;-88
2021/12/29 11:20:01;;;;;;;23.65;11.52;;;;;;;7.54;99.79;99104.81;5063291;28;20372;-90
2021/12/29 11:22:42;;;;;;;;;;;;;;;;;;;;;
2021/12/29 11:25:28;;;;;;;17.75;10.18;;;;;;;7.65;99.52;99106.66;5066761;28;20067;-88
2021/12/29 11:28:24;;;;;;;18.50;10.10;;;;;;;7.78;99.12;99106.56;5062678;28;20039;-88
2021/12/29 11:34:50;;;;;;;14.63;8.30;;;;;;;8.03;97.69;99114.22;5021193;28;20041;-87
2021/12/29 11:37:51;;;;;;;14.77;8.38;;;;;;;8.10;97.03;99114.59;5055641;28;20066;-89
2021/12/29 11:43:17;;;;;;;14.77;7.78;;;;;;;8.23;96.31;99120.53;5053123;28;20059;-89
2021/12/29 11:46:23;;;;;;;15.80;8.90;;;;;;;8.33;96.01;99123.28;5067046;28;20040;-88
2021/12/29 11:49:08;;;;;;;12.27;7.57;;;;;;;8.42;95.40;99123.44;5051230;28;20048;-89
2021/12/29 11:51:52;;;;;;;14.13;6.78;;;;;;;8.49;94.53;99134.22;5056607;28;20025;-89
2021/12/29 11:54:59;;;;;;;13.95;7.05;;;;;;;8.48;94.70;99127.34;5043980;28;20480;-88
2021/12/29 11:58:36;;;;;;;;;;;;;;;;;;;;;
2021/12/29 12:02:02;;;;;;;11.93;6.32;;;;;;;8.48;94.08;99128.19;5041160;28;20042;-89
2021/12/29 12:04:32;;;;;;;11.13;5.28;;;;;;;8.51;94.08;99131.53;5051697;28;20210;-90
2021/12/29 12:07:22;;;;;;;10.85;5.93;;;;;;;8.49;94.01;99131.63;5047305;28;20123;-90
2021/12/29 12:10:33;;;;;;;10.38;5.57;;;;;;;8.53;93.62;99135.69;5068089;28;20072;-91
2021/12/29 12:20:27;;;;;;;10.13;5.60;;;;;;;8.53;92.59;99140.06;4983892;28;20166;-91